createdAt,value
2018-07-27T05:28:32.706Z,180.00
2018-07-27T05:30:35.102Z,185.63
2018-07-27T05:31:35.459Z,191.25
2018-07-27T05:32:34.634Z,196.88
2018-07-27T05:33:33.180Z,202.50
2018-07-27T05:34:32.373Z,202.50
2018-07-27T08:32:27.076Z,703.13
2018-07-27T08:35:44.704Z,725.63
2018-07-27T08:58:09.985Z,523.13
2018-07-27T08:58:29.202Z,523.13
2018-07-27T10:02:22.493Z,2536.88
2018-07-27T10:03:17.895Z,2520.00
2018-07-27T10:04:24.941Z,2565.00
2018-07-27T10:05:19.996Z,2565.00
2018-07-27T10:06:27.606Z,2025.00
2018-07-27T10:10:01.049Z,2649.38
2018-07-27T10:11:08.300Z,2660.63
2018-07-27T10:12:05.021Z,2148.75
2018-07-27T10:13:11.135Z,2649.38
2018-07-27T10:14:02.499Z,2671.88
2018-07-27T10:15:08.642Z,2683.13
2018-07-27T10:19:18.870Z,2773.13
2018-07-27T10:20:22.146Z,2784.38
2018-07-27T10:35:32.470Z,3043.13
2018-07-27T10:36:32.757Z,3043.13
2018-07-27T10:37:31.388Z,3065.63
2018-07-27T10:38:31.120Z,3110.63
2018-07-27T10:39:31.257Z,3099.38
2018-07-27T10:40:31.494Z,3144.38
2018-07-27T10:41:31.779Z,3161.25
2018-07-27T10:42:31.936Z,3172.50
2018-07-27T10:43:32.074Z,3121.88
2018-07-27T10:44:32.287Z,3144.38
2018-07-27T10:45:32.413Z,3155.63
2018-07-27T10:46:32.617Z,3166.88
2018-07-27T10:47:32.783Z,3166.88
2018-07-27T10:48:32.941Z,3206.25
2018-07-27T10:49:33.136Z,3211.88
2018-07-27T10:50:33.397Z,3228.75
2018-07-27T10:51:33.526Z,3245.63
2018-07-27T10:52:33.644Z,3279.38
2018-07-27T10:53:33.831Z,3251.25
2018-07-27T10:54:34.043Z,573.75
2018-07-27T10:55:34.211Z,590.63
2018-07-27T10:56:34.386Z,3290.63
2018-07-27T10:57:34.579Z,3262.50
2018-07-27T10:58:34.757Z,3296.25
2018-07-27T10:59:34.859Z,3296.25
2018-07-27T11:00:35.099Z,3290.63
2018-07-27T11:01:35.237Z,3217.50
2018-07-27T11:02:35.469Z,3217.50
2018-07-27T11:03:35.658Z,3228.75
2018-07-27T11:04:35.836Z,2913.75
2018-07-27T11:05:35.962Z,3200.63
2018-07-27T11:06:36.207Z,1051.88
2018-07-27T11:07:36.376Z,3245.63
2018-07-27T11:08:36.501Z,3285.00
2018-07-27T11:09:36.701Z,3358.13
2018-07-27T11:10:36.826Z,3465.00
2018-07-27T11:11:37.042Z,3543.75
2018-07-27T11:12:37.228Z,3555.00
2018-07-27T11:13:37.428Z,3566.25
2018-07-27T11:14:37.610Z,3577.50
2018-07-27T11:15:37.793Z,3594.38
2018-07-27T11:16:38.019Z,3616.88
2018-07-27T11:17:38.286Z,3588.75
2018-07-27T11:18:38.283Z,3588.75
2018-07-27T11:19:38.483Z,3594.38
2018-07-27T11:20:38.633Z,3605.63
2018-07-27T11:21:38.804Z,3594.38
2018-07-27T11:22:39.037Z,3600.00
2018-07-27T11:23:39.179Z,3560.63
2018-07-27T11:24:39.321Z,3521.25
2018-07-27T11:25:39.522Z,3510.00
2018-07-27T11:26:39.747Z,3515.63
2018-07-27T11:27:39.928Z,3543.75
2018-07-27T11:28:40.078Z,3560.63
2018-07-27T11:29:40.213Z,3510.00
2018-07-27T11:30:40.468Z,3543.75
2018-07-27T11:31:40.641Z,2053.13
2018-07-27T11:32:40.777Z,3549.38
2018-07-27T11:33:41.058Z,3588.75
2018-07-27T11:34:41.174Z,3645.00
2018-07-27T11:35:41.353Z,3673.13
2018-07-27T11:36:41.522Z,3673.13
2018-07-27T11:37:41.721Z,3678.75
2018-07-27T11:38:41.911Z,2700.00
2018-07-27T11:39:42.072Z,3622.50
2018-07-27T11:40:42.235Z,3678.75
2018-07-27T11:41:42.414Z,3706.88
2018-07-27T11:42:42.573Z,3757.50
2018-07-27T11:43:42.808Z,3757.50
2018-07-27T11:44:42.970Z,3825.00
2018-07-27T11:45:43.101Z,3830.63
2018-07-27T11:46:43.306Z,3915.00
2018-07-27T11:47:43.444Z,3943.13
2018-07-27T11:48:43.650Z,3948.75
2018-07-27T11:49:43.898Z,3926.25
2018-07-27T11:50:44.057Z,3892.50
2018-07-27T11:51:44.215Z,3943.13
2018-07-27T11:52:44.417Z,3971.25
2018-07-27T11:53:44.528Z,3931.88
2018-07-27T11:54:44.979Z,3903.75
2018-07-27T11:55:45.083Z,3915.00
2018-07-27T11:56:45.303Z,3960.00
2018-07-27T11:57:45.487Z,3965.63
2018-07-27T11:58:45.632Z,3414.38
2018-07-27T11:59:45.943Z,3864.38
2018-07-27T12:00:45.963Z,3960.00
2018-07-27T12:01:46.635Z,3960.00
2018-07-27T12:02:46.382Z,3971.25
2018-07-27T12:03:47.627Z,4010.63
2018-07-27T12:04:46.734Z,4005.00
2018-07-27T12:05:47.019Z,4010.63
2018-07-27T12:06:47.311Z,4027.50
2018-07-27T12:07:47.267Z,4078.13
2018-07-27T12:08:47.569Z,4134.38
2018-07-27T12:09:47.660Z,4128.75
2018-07-27T12:10:47.912Z,4078.13
2018-07-27T12:11:48.486Z,3999.38
2018-07-27T12:12:48.314Z,4016.25
2018-07-27T12:13:48.600Z,4089.38
2018-07-27T12:14:48.719Z,4123.13
2018-07-27T12:15:48.812Z,4095.00
2018-07-27T12:16:49.335Z,3993.75
2018-07-27T12:17:49.686Z,3993.75
2018-07-27T12:18:49.519Z,3971.25
2018-07-27T12:19:49.813Z,4021.88
2018-07-27T12:20:54.245Z,4066.88
2018-07-27T12:22:59.907Z,4134.38
2018-07-27T12:26:08.153Z,4095.00
2018-07-27T12:31:06.205Z,1625.63
2018-07-27T12:32:08.979Z,4269.38
2018-07-27T12:33:40.479Z,4303.13
2018-07-27T12:34:42.523Z,4325.63
2018-07-27T12:36:38.068Z,4314.38
2018-07-27T12:37:38.438Z,4325.63
2018-07-27T12:38:38.197Z,4353.75
2018-07-27T12:39:38.485Z,4353.75
2018-07-27T12:40:38.651Z,4370.63
2018-07-27T12:41:38.851Z,4291.88
2018-07-27T12:42:40.117Z,4201.88
2018-07-27T12:43:39.826Z,3183.75
2018-07-27T12:44:40.779Z,871.88
2018-07-27T12:45:39.711Z,838.13
2018-07-27T12:46:40.229Z,843.75
2018-07-27T12:47:40.047Z,922.50
2018-07-27T12:48:40.487Z,1046.25
2018-07-27T12:49:40.469Z,3825.00
2018-07-27T12:50:41.752Z,4100.63
2018-07-27T12:51:41.024Z,4134.38
2018-07-27T12:52:41.730Z,4196.25
2018-07-27T12:53:41.265Z,2351.25
2018-07-27T12:54:44.889Z,4246.88
2018-07-27T12:55:47.738Z,4230.00
2018-07-27T12:56:43.143Z,4235.63
2018-07-27T12:57:42.998Z,4235.63
2018-07-27T12:58:43.462Z,4241.25
2018-07-27T12:59:43.021Z,3251.25
2018-07-27T13:00:42.290Z,2452.50
2018-07-27T13:01:42.781Z,1305.00
2018-07-27T13:02:42.740Z,1642.50
2018-07-27T13:03:42.971Z,4016.25
2018-07-27T13:04:43.689Z,4235.63
2018-07-27T13:05:43.625Z,4179.38
2018-07-27T13:06:43.926Z,4185.00
2018-07-27T13:07:46.376Z,4179.38
2018-07-27T13:08:46.263Z,4140.00
2018-07-27T13:09:43.988Z,4252.50
2018-07-27T13:10:44.248Z,4331.25
2018-07-27T13:16:19.714Z,4325.63
2018-07-27T13:20:21.396Z,4246.88
2018-07-27T13:21:20.063Z,4320.00
2018-07-27T13:23:14.045Z,1957.50
2018-07-27T13:24:19.315Z,2542.50
2018-07-27T13:36:12.565Z,4072.50
2018-07-27T13:36:31.990Z,4162.50
2018-07-27T16:54:57.416Z,405.00
2018-07-27T16:58:38.941Z,382.50
2018-07-27T17:00:01.393Z,382.50
